KSQI/SQI METAR and TAF weather

Enter ICAO airport designator
Station Type Date Time Source
KSQI METAR 2018/12/19 02:56 UTC NOAA

KSQI 190256Z AUTO 00000KT 10SM CLR 01/M02 A3000 RMK AO2 SLP183 T00111017 58010 FZRANO


Station Type Date Time Source
KSQI Decoded METAR 2018/12/19 02:56 UTC NOAA

Sterling Rockfalls, IL, United States (KSQI) 41-45N 089-40W
Dec 18, 2018 - 09:56 PM EST / 2018.12.19 0256 UTC
Wind: Calm:0
Visibility: 10 mile(s):0
Sky conditions: clear
Temperature: 34.0 F (1.1 C)
Dew Point: 28.9 F (-1.7 C)
Relative Humidity: 81%
Pressure (altimeter): 30 in. Hg (1015 hPa)
Pressure tendency: 0.03 inches (1.0 hPa) lower than three hours ago
ob: KSQI 190256Z AUTO 00000KT 10SM CLR 01/M02 A3000 RMK AO2 SLP183 T00111017 58010 FZRANO
cycle: 3

Station Type Date Time Source
KSQI TAF UTC NOAA

Error!


Example: see airport list